Hit Tracker is now ESPN Home Run Tracker! Hit Tracker founder Greg Rybarczyk is now collaborating with the ESPN Stats & Information Group to continue tracking all MLB home runs, and helping baseball fans know "How Far It Really Went!™" Please credit any information on this site to ESPN Stats & Information Group. For more information and analysis on home runs, please contact founder Greg Rybarczyk. E-Mail ESPN Home Run Tracker
Main Page | Ballparks | Park Overlays | Glossary | Highlight Homers | Feedback | Bio | 3 Types of HR's | AAA Home Run Derby Last Updated: July 23, 2016, 10:08 pm PST
If you want to know "How Far It Really Went!", then you've come to the right place! Welcome to the ESPN Home Run Tracker, where you can find accurate, transparently verifiable distances for every home run hit in MLB games. Please also check out the ESPN MLB Scoreboard throughout the 2016 season! Contact us at grybar@hittrackeronline.com.
Season:
Ballpark detail for Nationals Park
Ballpark # of Home Runs HR per game Avg.
True
Distance
Avg.
Speed
Off
Bat
Avg.
Std.
Dist.
Nationals Park 110 2.24 401.5 103.6 398.6

Scatter Plot of Home Runs Nationals Park
 Overlay Ballpark:
Without range rings   With range rings

2016 Season Home Runs for Nationals Park
Click headers to sort
Date ^ Video Path Hitter Hitter
Team
Pitcher Pitcher
Team
INN Ballpark Type/
Luck
True
Dist.
Speed
Off
Bat
Elev.
Angle
Horiz.
Angle
Apex Impact Due To: Std.
Dist.
#
Parks
Wind Temp. Alt.
07/23/16 Video View Schimpf, Ryan SD Scherzer, Max WSH 2 Nationals Pa... ND 415 111.1 34.9 66.7 147 -10 9 0 414 30
07/22/16 Video View Kemp, Matt SD Roark, Tanner WSH 1 Nationals Pa... PL/L 401 97.5 33.4 100.2 105 18 4 0 379 5
07/22/16 Video View Werth, Jayson WSH Perdomo, Luis SD 1 Nationals Pa... ND 444 109.5 22.6 93.0 74 1 1 0 443 30
07/22/16 Video View Kemp, Matt SD Roark, Tanner WSH 5 Nationals Pa... PL 425 104.6 27.0 98.6 92 1 2 0 422 30
07/22/16 Video View Murphy, Daniel WSH Hand, Brad SD 8 Nationals Pa... PL/L 393 96.4 32.2 78.2 95 17 3 0 375 1
07/21/16 Video View Turner, Justin LAD Strasburg, Stephen WSH 1 Nationals Pa... ND 430 108.4 26.1 105.3 86 1 2 0 427 30
07/21/16 Video View Turner, Justin LAD Strasburg, Stephen WSH 3 Nationals Pa... JE 404 99.8 30.8 94.2 108 0 3 0 401 9
07/20/16 Video View Harper, Bryce WSH Norris, Bud LAD 1 Nationals Pa... ND 449 116.5 32.7 64.6 139 -4 6 0 446 30
07/20/16 Video View Revere, Ben WSH Norris, Bud LAD 5 Nationals Pa... JE 391 100.0 25.7 81.7 79 -1 1 0 392 10
07/20/16 Video View Werth, Jayson WSH Norris, Bud LAD 5 Nationals Pa... PL 403 104.9 26.0 107.3 81 -2 1 0 403 30
07/20/16 Video View Rendon, Anthony WSH Howell, J.P. LAD 8 Nationals Pa... ND 440 109.2 27.6 104.1 101 0 2 0 438 30
07/19/16 Video View Utley, Chase LAD Lopez, Reynaldo WSH 1 Nationals Pa... PL 387 98.7 34.4 77.9 119 3 4 0 380 18
07/19/16 Video View Lobaton, Jose WSH Kazmir, Scott LAD 5 Nationals Pa... JE/L 385 98.1 36.1 102.7 124 12 4 0 369 4
07/19/16 Video View Grandal, Yasmani LAD Kelley, Shawn WSH 9 Nationals Pa... PL 411 99.9 31.7 84.6 109 9 2 0 399 6
07/17/16 Video View Murphy, Daniel WSH Melancon, Mark PIT 9 Nationals Pa... ND 396 107.6 26.8 56.7 74 -1 3 0 394 30
07/17/16 Video View Marte, Starling PIT Perez, Oliver WSH 18 Nationals Pa... ND 429 108.7 30.0 114.0 102 4 4 0 421 30
07/16/16 Video View Rendon, Anthony WSH Schugel, A.J. PIT 5 Nationals Pa... PL 406 102.0 30.8 99.2 114 -4 2 0 408 28
07/15/16 Video View Taylor, Michael WSH Feliz, Neftali PIT 7 Nationals Pa... PL 397 100.9 28.5 76.3 90 0 2 0 396 27
07/06/16 Video View Harper, Bryce WSH Garza, Matt MIL 1 Nationals Pa... JE 391 104.8 23.1 104.3 62 1 1 1 390 15
07/06/16 Video View Lobaton, Jose WSH Garza, Matt MIL 2 Nationals Pa... JE 397 103.8 22.7 81.8 64 -1 1 0 397 9
07/06/16 Video View Zimmerman, Ryan WSH Garza, Matt MIL 5 Nationals Pa... PL 408 100.1 28.4 87.4 95 1 3 0 404 7
07/05/16 Video View Perez, Hernan MIL Gonzalez, Gio WSH 6 Nationals Pa... JE 389 98.2 32.6 80.5 112 0 3 0 386 10
07/05/16 Video View Hill, Aaron MIL Treinen, Blake WSH 7 Nationals Pa... PL 393 99.6 31.7 103.1 107 0 3 0 390 26
07/04/16 Video View Maldonado, Martin MIL Scherzer, Max WSH 5 Nationals Pa... ND 438 110.0 27.1 106.1 97 0 1 0 437 30
07/03/16 Video View Ramos, Wilson WSH Lamb, John CIN 2 Nationals Pa... PL 407 101.9 27.2 99.5 87 2 0 0 405 26
07/03/16 Video View Espinosa, Danny WSH Lamb, John CIN 4 Nationals Pa... PL 403 107.8 24.5 111.2 70 0 1 0 402 30
07/03/16 Video View Harper, Bryce WSH Lamb, John CIN 5 Nationals Pa... ND 441 113.0 21.8 80.1 70 0 0 0 441 30
07/03/16 Video View Espinosa, Danny WSH Sampson, Keyvius CIN 7 Nationals Pa... JE 393 98.3 32.7 81.1 111 6 1 0 386 9
07/03/16 Video View Rendon, Anthony WSH Sampson, Keyvius CIN 7 Nationals Pa... PL 395 101.0 29.0 105.0 93 0 0 0 395 30
07/03/16 Video View Drew, Stephen WSH Diaz, Jumbo CIN 8 Nationals Pa... JE 398 105.2 21.9 98.9 63 0 0 0 397 8
07/02/16 Video View Espinosa, Danny WSH Straily, Dan CIN 8 Nationals Pa... JE/L 380 96.9 32.9 77.6 107 3 1 0 375 5
06/30/16 Video View Zimmerman, Ryan WSH Finnegan, Brandon CIN 1 Nationals Pa... JE 416 101.9 27.7 92.3 95 1 1 0 414 19
06/30/16 Video View Espinosa, Danny WSH Finnegan, Brandon CIN 3 Nationals Pa... PL 425 104.9 28.5 100.1 103 0 1 0 424 30
06/30/16 Video View Espinosa, Danny WSH Smith, Josh CIN 4 Nationals Pa... PL 405 103.6 24.5 99.8 74 0 0 0 404 23
06/30/16 Video View Votto, Joey CIN Gonzalez, Gio WSH 6 Nationals Pa... ND 424 105.7 29.5 104.1 106 2 2 0 421 30
06/29/16 Video View Murphy, Daniel WSH Verrett, Logan NYM 2 Nationals Pa... PL 387 102.7 32.1 63.1 103 -2 2 0 388 30
06/29/16 Video View Murphy, Daniel WSH Gilmartin, Sean NYM 8 Nationals Pa... PL 364 97.7 35.6 64.7 111 4 1 0 359 26
06/29/16 Video View Loney, James NYM Kelley, Shawn WSH 9 Nationals Pa... JE 369 104.3 24.0 62.9 60 -1 0 0 369 24
06/28/16 Video View Harper, Bryce WSH Blevins, Jerry NYM 5 Nationals Pa... PL 393 104.6 26.5 65.8 72 3 0 0 390 30
06/15/16 Video View Zobrist, Ben CHC Strasburg, Stephen WSH 1 Nationals Pa... JE 371 100.5 27.5 61.9 69 4 1 0 367 25
06/15/16 Video View Drew, Stephen WSH Strop, Pedro CHC 8 Nationals Pa... JE 395 106.2 24.5 67.9 64 3 1 0 391 29
06/15/16 Video View Rizzo, Anthony CHC Perez, Oliver WSH 9 Nationals Pa... ND 410 108.6 26.5 60.5 73 6 1 0 403 30
06/13/16 Video View Russell, Addison CHC Scherzer, Max WSH 6 Nationals Pa... PL 388 105.3 28.0 123.1 78 0 1 0 387 30
06/13/16 Video View Ramos, Wilson WSH Hendricks, Kyle CHC 6 Nationals Pa... JE 358 95.8 33.5 65.0 97 2 1 0 355 22
06/12/16 Video View Espinosa, Danny WSH Morgan, Adam PHI 2 Nationals Pa... PL 412 105.3 23.3 98.4 75 0 1 0 411 27
06/12/16 Video View Asche, Cody PHI Ross, Joe WSH 5 Nationals Pa... JE/L 350 95.0 32.3 122.6 82 3 3 0 344 18
06/12/16 Video View Franco, Maikel PHI Papelbon, Jonathan WSH 9 Nationals Pa... PL 406 105.8 29.3 113.5 96 -4 3 0 407 30
06/10/16 Video View Joseph, Tommy PHI Strasburg, Stephen WSH 3 Nationals Pa... PL 410 104.4 24.0 98.2 75 0 1 0 410 23
06/10/16 Video View Ramos, Wilson WSH Hellickson, Jeremy PHI 4 Nationals Pa... PL 426 106.5 22.9 87.5 75 0 1 0 426 27
06/10/16 Video View Drew, Stephen WSH Hellickson, Jeremy PHI 4 Nationals Pa... JE 393 98.9 27.4 82.8 84 1 1 0 391 3
06/10/16 Video View Espinosa, Danny WSH Hellickson, Jeremy PHI 6 Nationals Pa... JE 380 108.6 22.4 63.2 56 0 1 0 379 29
06/10/16 Video View Joseph, Tommy PHI Rivero, Felipe WSH 8 Nationals Pa... ND 425 111.7 25.1 112.7 78 0 1 0 425 30
05/29/16 Video View Moss, Brandon STL Strasburg, Stephen WSH 4 Nationals Pa... ND 419 110.8 26.2 61.7 78 3 2 0 415 30
05/29/16 Video View Rendon, Anthony WSH Broxton, Jonathan STL 7 Nationals Pa... JE/L 383 95.8 33.4 78.8 104 11 2 0 370 0
05/29/16 Video View Werth, Jayson WSH Kiekhefer, Dean STL 7 Nationals Pa... PL 428 105.4 24.2 88.3 80 0 1 0 427 27
05/29/16 Video View Ramos, Wilson WSH Lyons, Tyler STL 8 Nationals Pa... PL 402 104.8 36.0 113.1 132 14 4 0 386 30
05/28/16 Video View Zimmerman, Ryan WSH Wainwright, Adam STL 2 Nationals Pa... JE/L 389 98.2 31.1 73.0 94 10 2 0 378 14
05/28/16 Video View Holliday, Matt STL Gonzalez, Gio WSH 3 Nationals Pa... PL 395 101.1 27.0 105.1 75 5 1 0 390 26
05/28/16 Video View Harper, Bryce WSH Wainwright, Adam STL 6 Nationals Pa... PL 428 105.7 23.7 89.2 77 1 1 0 426 27
05/28/16 Video View Zimmerman, Ryan WSH Wainwright, Adam STL 7 Nationals Pa... PL 406 101.0 26.2 95.2 81 1 1 0 404 13
05/27/16 Video View Piscotty, Stephen STL Scherzer, Max WSH 3 Nationals Pa... PL 384 100.6 35.4 114.0 117 8 4 0 372 29
05/27/16 Video View Espinosa, Danny WSH Garcia, Jaime STL 5 Nationals Pa... PL 379 109.1 23.1 124.6 56 0 1 0 377 30
05/27/16 Video View Garcia, Greg STL Petit, Yusmeiro WSH 8 Nationals Pa... JE 396 99.6 27.7 98.7 88 0 1 0 394 11
05/26/16 Video View Diaz, Aledmys STL Ross, Joe WSH 4 Nationals Pa... PL 411 106.0 23.8 101.4 73 0 1 0 410 30
05/26/16 Video View Harper, Bryce WSH Leake, Mike STL 6 Nationals Pa... ND 437 112.8 30.1 61.4 108 -1 3 0 435 30
05/26/16 Video View Espinosa, Danny WSH Leake, Mike STL 7 Nationals Pa... ND 396 104.0 31.3 59.4 94 5 2 0 390 30
05/25/16 Video View Wright, David NYM Roark, Tanner WSH 1 Nationals Pa... JE 383 106.1 23.0 110.7 60 0 1 0 382 22
05/24/16 Video View Cabrera, Asdrubal NYM Strasburg, Stephen WSH 4 Nationals Pa... JE 354 99.7 26.7 57.0 64 0 1 0 353 23
05/24/16 Video View Zimmerman, Ryan WSH Harvey, Matt NYM 4 Nationals Pa... PL 403 103.2 30.1 108.5 100 0 1 0 401 30
05/24/16 Video View Rendon, Anthony WSH Harvey, Matt NYM 4 Nationals Pa... PL 419 109.4 24.8 109.0 76 0 1 0 418 30
05/24/16 Video View Murphy, Daniel WSH Harvey, Matt NYM 5 Nationals Pa... PL 401 104.9 29.5 64.8 92 0 1 0 400 30
05/24/16 Video View Revere, Ben WSH Bastardo, Antonio NYM 7 Nationals Pa... JE 384 104.5 25.1 66.5 68 0 0 0 384 30
05/24/16 Video View Ramos, Wilson WSH Henderson, Jim NYM 8 Nationals Pa... PL 398 100.1 30.3 100.3 103 0 1 0 397 26
05/24/16 Video View Campbell, Eric NYM Kelley, Shawn WSH 9 Nationals Pa... JE 353 101.9 25.1 124.9 58 0 0 0 353 21
05/23/16 Video View Wright, David NYM Gonzalez, Gio WSH 3 Nationals Pa... JE 366 97.6 32.6 112.7 99 0 -1 0 367 26
05/23/16 Video View Cespedes, Yoenis NYM Gonzalez, Gio WSH 5 Nationals Pa... JE 398 99.3 29.7 85.4 103 0 -1 0 399 8
05/23/16 Video View Walker, Neil NYM Gonzalez, Gio WSH 5 Nationals Pa... JE 362 97.7 34.8 112.5 112 0 -2 0 364 24
05/15/16 Video View Zimmerman, Ryan WSH Fernandez, Jose MIA 4 Nationals Pa... ITP/L 363 91.8 30.7 77.8 77 14 -1 0 350 0
05/15/16 Video View Stanton, Giancarlo MIA Ross, Joe WSH 6 Nationals Pa... PL 377 97.6 33.7 67.0 100 13 -2 0 365 23
05/14/16 Video View Yelich, Christian MIA Strasburg, Stephen WSH 1 Nationals Pa... PL 429 103.5 27.1 87.6 90 6 0 0 423 27
05/14/16 Video View Ramos, Wilson WSH Wittgren, Nick MIA 6 Nationals Pa... JE 398 108.5 19.2 97.0 54 1 0 0 397 2
05/14/16 Video View Bour, Justin MIA Roark, Tanner WSH 3 Nationals Pa... PL 433 105.5 25.5 93.2 89 3 -1 0 430 26
05/13/16 Video View Drew, Stephen WSH Morris, Bryan MIA 6 Nationals Pa... PL 403 103.4 29.5 71.8 97 0 0 0 403 30
05/13/16 Video View Harper, Bryce WSH Barraclough, Kyle MIA 7 Nationals Pa... PL 410 104.4 28.0 74.2 93 0 0 0 410 30
05/13/16 Video View Heisey, Chris WSH McGowan, Dustin MIA 8 Nationals Pa... PL 411 102.8 29.3 100.6 103 0 0 0 411 30
05/11/16 Video View Iglesias, Jose DET Scherzer, Max WSH 3 Nationals Pa... JE 354 96.3 33.3 117.7 95 0 -2 0 355 21
05/11/16 Video View Espinosa, Danny WSH Zimmermann, Jordan DET 7 Nationals Pa... PL 417 105.5 22.7 85.9 75 0 -1 0 417 22
05/11/16 Video View Martinez, J.D. DET Scherzer, Max WSH 9 Nationals Pa... PL 421 103.8 29.4 95.8 111 0 -2 0 422 29
05/10/16 Video View Castellanos, Nick DET Ross, Joe WSH 4 Nationals Pa... PL 397 100.8 29.4 102.6 98 0 -1 0 398 30
05/10/16 Video View Zimmerman, Ryan WSH Fulmer, Michael DET 5 Nationals Pa... PL 413 108.2 27.1 108.9 95 -8 -1 0 423 30
05/10/16 Video View Zimmerman, Ryan WSH VerHagen, Drew DET 7 Nationals Pa... JE 407 110.6 18.9 97.0 55 2 0 0 405 10
05/09/16 Video View Castellanos, Nick DET Strasburg, Stephen WSH 1 Nationals Pa... JE 382 105.7 23.9 113.4 63 0 -1 0 383 30
05/09/16 Video View Martinez, J.D. DET Strasburg, Stephen WSH 5 Nationals Pa... JE 392 109.1 20.6 103.4 54 -1 0 -1 394 16
05/09/16 Video View Murphy, Daniel WSH Sanchez, Anibal DET 6 Nationals Pa... PL 416 107.6 25.9 71.9 82 1 -1 0 416 30
05/09/16 Video View Robinson, Clint WSH Lowe, Mark DET 9 Nationals Pa... JE/L 377 98.6 34.6 73.9 119 4 -2 0 375 20
04/27/16 Video View Ruiz, Carlos PHI Solis, Sammy WSH 8 Nationals Pa... PL 417 107.9 26.3 108.1 86 0 -2 0 419 30
04/26/16 Video View Blanco, Andres PHI Scherzer, Max WSH 1 Nationals Pa... JE 408 101.6 25.5 85.9 77 2 1 0 406 11
04/24/16 Video View den Dekker, Matt WSH Duffey, Tyler MIN 1 Nationals Pa... PL 364 98.4 32.6 60.9 94 0 -1 0 364 30
04/24/16 Video View Dozier, Brian MIN Strasburg, Stephen WSH 8 Nationals Pa... ND 409 106.6 30.2 117.8 96 4 0 0 405 30
04/24/16 Video View Harper, Bryce WSH Jepsen, Kevin MIN 9 Nationals Pa... PL 413 101.3 30.3 87.0 108 3 0 0 410 20
04/24/16 Video View Heisey, Chris WSH Tonkin, Michael MIN 16 Nationals Pa... PL 427 107.3 25.3 100.9 86 0 0 0 427 30
04/22/16 Video View Werth, Jayson WSH Tonkin, Michael MIN 5 Nationals Pa... PL 399 103.4 27.1 108.3 80 2 0 0 397 30
04/22/16 Video View Sano, Miguel MIN Rivero, Felipe WSH 8 Nationals Pa... PL 430 103.9 28.1 89.0 101 4 -1 0 427 27
04/14/16 Video View Harper, Bryce WSH Teheran, Julio ATL 3 Nationals Pa... ND 429 109.6 25.7 73.3 86 1 -1 0 429 30
04/14/16 Video View Ramos, Wilson WSH Teheran, Julio ATL 4 Nationals Pa... ND 445 111.6 23.7 100.6 81 0 -1 0 445 30
04/13/16 Video View Drew, Stephen WSH Wisler, Matt ATL 4 Nationals Pa... JE 388 99.0 28.6 81.9 96 -3 -2 0 393 18
04/13/16 Video View Werth, Jayson WSH Wisler, Matt ATL 4 Nationals Pa... PL 432 109.6 21.0 94.5 76 3 0 0 429 28
04/11/16 Video View Murphy, Daniel WSH Norris, Bud ATL 1 Nationals Pa... JE/L 397 96.8 30.9 80.3 89 17 0 0 380 0
04/10/16 Video View Yelich, Christian MIA Papelbon, Jonathan WSH 9 Nationals Pa... PL 399 101.0 31.4 69.1 98 15 -4 0 387 29
04/07/16 Video View Harper, Bryce WSH Morris, Bryan MIA 7 Nationals Pa... PL 386 102.3 31.3 63.8 98 2 -3 0 387 30


About HitTracker | Contact Us
© 2006-2016 HitTrackerOnline